createdAt,value
2019-04-28T00:00:47.057Z,6.90
2019-04-28T00:03:16.100Z,7.00
2019-04-28T00:05:45.194Z,6.90
2019-04-28T00:08:14.405Z,6.90
2019-04-28T00:10:43.429Z,7.00
2019-04-28T00:13:12.843Z,7.00
2019-04-28T00:15:42.013Z,7.00
2019-04-28T00:18:11.959Z,6.90
2019-04-28T00:20:58.862Z,6.90
2019-04-28T00:23:55.238Z,7.00
2019-04-28T00:26:37.670Z,7.00
2019-04-28T00:29:06.859Z,7.00
2019-04-28T00:31:36.047Z,7.00
2019-04-28T00:34:05.154Z,6.90
2019-04-28T00:36:34.180Z,7.00
2019-04-28T00:39:03.342Z,6.90
2019-04-28T00:41:32.419Z,6.90
2019-04-28T00:44:01.997Z,6.80
2019-04-28T00:46:34.248Z,6.90
2019-04-28T00:49:03.433Z,6.90
2019-04-28T00:51:32.451Z,6.90
2019-04-28T00:54:01.587Z,6.90
2019-04-28T00:56:31.725Z,6.90
2019-04-28T00:59:01.685Z,6.80
2019-04-28T01:01:51.307Z,6.90
2019-04-28T01:04:21.902Z,6.90
2019-04-28T01:06:51.978Z,6.90
2019-04-28T01:09:21.838Z,6.80
2019-04-28T01:11:53.356Z,6.80
2019-04-28T01:14:22.101Z,6.90
2019-04-28T01:17:00.417Z,7.00
2019-04-28T01:19:32.789Z,7.00
2019-04-28T01:22:20.163Z,7.10
2019-04-28T01:24:49.800Z,7.10
2019-04-28T01:27:44.295Z,7.10
2019-04-28T01:30:21.067Z,7.10
2019-04-28T01:32:56.733Z,7.20
2019-04-28T01:35:25.741Z,7.20
2019-04-28T01:37:54.812Z,7.20
2019-04-28T01:40:23.875Z,7.10
2019-04-28T01:42:52.822Z,7.00
2019-04-28T01:45:21.969Z,7.20
2019-04-28T01:47:51.102Z,7.20
2019-04-28T01:50:20.599Z,7.10
2019-04-28T01:52:51.420Z,7.10
2019-04-28T01:55:20.686Z,7.10
2019-04-28T01:57:49.874Z,7.10
2019-04-28T02:00:25.098Z,7.20
2019-04-28T02:02:50.607Z,7.20
2019-04-28T02:05:19.827Z,7.30
2019-04-28T02:07:50.534Z,7.30
2019-04-28T02:10:20.211Z,7.30
2019-04-28T02:12:50.454Z,7.30
2019-04-28T02:15:20.220Z,7.30
2019-04-28T02:17:50.019Z,7.30
2019-04-28T02:20:21.536Z,7.30
2019-04-28T02:22:59.847Z,7.30
2019-04-28T02:25:29.799Z,7.40
2019-04-28T02:27:59.597Z,7.30
2019-04-28T02:30:42.271Z,7.40
2019-04-28T02:33:01.608Z,7.40
2019-04-28T02:35:33.518Z,7.40
2019-04-28T02:38:01.075Z,7.40
2019-04-28T02:40:30.643Z,7.40
2019-04-28T02:43:01.245Z,7.30
2019-04-28T02:45:31.615Z,7.40
2019-04-28T02:48:03.348Z,7.40
2019-04-28T02:50:42.113Z,7.40
2019-04-28T02:53:17.120Z,7.40
2019-04-28T02:55:46.229Z,7.40
2019-04-28T02:58:15.245Z,7.30
2019-04-28T03:01:01.416Z,7.30
2019-04-28T03:03:15.159Z,7.30
2019-04-28T03:05:44.178Z,7.40
2019-04-28T03:08:13.239Z,7.30
2019-04-28T03:10:42.249Z,7.30
2019-04-28T03:13:13.347Z,7.20
2019-04-28T03:15:42.967Z,7.30
2019-04-28T03:18:12.179Z,7.30
2019-04-28T03:20:42.391Z,7.30
2019-04-28T03:23:12.403Z,7.20
2019-04-28T03:25:54.849Z,7.20
2019-04-28T03:28:33.768Z,7.10
2019-04-28T03:31:40.599Z,7.20
2019-04-28T03:33:48.555Z,7.30
2019-04-28T03:36:15.560Z,7.30
2019-04-28T03:38:43.650Z,7.40
2019-04-28T03:41:12.651Z,7.40
2019-04-28T03:43:41.583Z,7.30
2019-04-28T03:46:15.870Z,7.30
2019-04-28T03:48:44.912Z,7.30
2019-04-28T03:51:13.907Z,7.30
2019-04-28T03:53:42.909Z,7.20
2019-04-28T03:56:11.856Z,7.20
2019-04-28T03:58:42.306Z,7.10
2019-04-28T04:01:11.443Z,7.20
2019-04-28T04:03:41.674Z,7.20
2019-04-28T04:06:11.218Z,7.10
2019-04-28T04:08:40.981Z,7.10
2019-04-28T04:11:35.308Z,7.10
2019-04-28T04:14:17.590Z,7.20
2019-04-28T04:16:59.988Z,7.20
2019-04-28T04:19:32.306Z,7.20
2019-04-28T04:22:02.193Z,7.20
2019-04-28T04:24:31.194Z,7.20
2019-04-28T04:27:00.810Z,7.20
2019-04-28T04:29:30.975Z,7.30
2019-04-28T04:32:13.432Z,7.30
2019-04-28T04:34:30.913Z,7.20
2019-04-28T04:37:00.688Z,7.30
2019-04-28T04:39:30.424Z,7.30
2019-04-28T04:42:00.639Z,7.20
2019-04-28T04:44:31.690Z,7.20
2019-04-28T04:47:01.075Z,7.20
2019-04-28T04:49:31.563Z,7.20
2019-04-28T04:52:00.815Z,7.20
2019-04-28T04:54:32.352Z,7.30
2019-04-28T04:57:00.813Z,7.30
2019-04-28T04:59:31.422Z,7.40
2019-04-28T05:02:29.496Z,7.40
2019-04-28T05:05:12.161Z,7.40
2019-04-28T05:07:41.154Z,7.50
2019-04-28T05:10:10.633Z,7.50
2019-04-28T05:12:40.385Z,7.50
2019-04-28T05:15:10.443Z,7.50
2019-04-28T05:17:40.234Z,7.60
2019-04-28T05:20:09.855Z,7.60
2019-04-28T05:22:45.706Z,7.60
2019-04-28T05:25:20.502Z,7.60
2019-04-28T05:27:50.016Z,7.60
2019-04-28T05:30:20.415Z,7.50
2019-04-28T05:32:55.659Z,7.60
2019-04-28T05:35:21.962Z,7.60
2019-04-28T05:37:51.146Z,7.70
2019-04-28T05:40:20.636Z,7.70
2019-04-28T05:43:00.828Z,7.70
2019-04-28T05:45:32.238Z,7.80
2019-04-28T05:48:01.641Z,7.70
2019-04-28T05:50:42.429Z,7.80
2019-04-28T05:53:21.701Z,7.80
2019-04-28T05:56:00.048Z,7.80
2019-04-28T05:58:51.040Z,7.70
2019-04-28T06:01:30.515Z,7.80
2019-04-28T06:04:00.918Z,7.70
2019-04-28T06:06:33.477Z,7.70
2019-04-28T06:09:10.145Z,7.70
2019-04-28T06:11:40.575Z,7.70
2019-04-28T06:14:10.085Z,7.70
2019-04-28T06:16:40.644Z,7.80
2019-04-28T06:19:10.351Z,7.60
2019-04-28T06:21:39.695Z,7.60
2019-04-28T06:24:08.806Z,7.40
2019-04-28T06:26:37.903Z,7.40
2019-04-28T06:29:06.983Z,7.50
2019-04-28T06:31:35.990Z,7.60
2019-04-28T06:34:05.103Z,7.60
2019-04-28T06:36:34.157Z,7.50
2019-04-28T06:39:04.033Z,7.50
2019-04-28T06:41:33.005Z,7.60
2019-04-28T06:44:02.006Z,7.70
2019-04-28T06:46:31.058Z,7.80
2019-04-28T06:49:00.055Z,7.80
2019-04-28T06:51:28.937Z,7.80
2019-04-28T06:53:58.013Z,7.80
2019-04-28T06:56:26.993Z,7.80
2019-04-28T06:58:59.318Z,7.90
2019-04-28T07:01:26.713Z,8.10
2019-04-28T07:03:55.998Z,8.20
2019-04-28T07:06:25.042Z,8.20
2019-04-28T07:08:54.197Z,8.20
2019-04-28T07:11:23.246Z,8.30
2019-04-28T07:13:52.327Z,8.30
2019-04-28T07:16:21.516Z,8.40
2019-04-28T07:18:50.521Z,8.40
2019-04-28T07:21:33.401Z,8.40
2019-04-28T07:24:02.448Z,8.50
2019-04-28T07:26:32.444Z,8.50
2019-04-28T07:29:01.434Z,8.50
2019-04-28T07:31:30.483Z,8.50
2019-04-28T07:33:59.520Z,8.60
2019-04-28T07:36:28.530Z,8.60
2019-04-28T07:38:57.521Z,8.80
2019-04-28T07:41:26.444Z,9.00
2019-04-28T07:43:56.710Z,9.30
2019-04-28T07:46:25.598Z,9.50
2019-04-28T07:48:54.586Z,9.70
2019-04-28T07:51:25.069Z,9.90
2019-04-28T07:54:04.641Z,10.30
2019-04-28T07:56:32.349Z,10.50
2019-04-28T07:59:01.512Z,10.80
2019-04-28T08:01:30.686Z,11.20
2019-04-28T08:03:59.688Z,11.40
2019-04-28T08:06:28.847Z,11.60
2019-04-28T08:08:57.925Z,12.10
2019-04-28T08:11:26.834Z,12.60
2019-04-28T08:13:55.762Z,13.10
2019-04-28T08:16:24.757Z,13.40
2019-04-28T08:18:53.684Z,14.10
2019-04-28T08:21:22.614Z,14.40
2019-04-28T08:23:51.826Z,14.80
2019-04-28T08:26:20.746Z,14.80
2019-04-28T08:28:49.831Z,14.60
2019-04-28T08:31:20.532Z,14.30
2019-04-28T08:34:02.238Z,14.30
2019-04-28T08:36:26.496Z,14.10
2019-04-28T08:38:55.762Z,14.00
2019-04-28T08:41:24.752Z,13.80
2019-04-28T08:43:53.885Z,13.10
2019-04-28T08:46:22.885Z,12.60
2019-04-28T08:48:52.122Z,12.40
2019-04-28T08:51:21.076Z,12.10
2019-04-28T08:53:50.479Z,11.90
2019-04-28T08:56:19.497Z,11.70
2019-04-28T08:58:48.413Z,11.30
2019-04-28T09:01:17.420Z,11.00
2019-04-28T09:03:46.776Z,10.90
2019-04-28T09:06:15.864Z,10.50
2019-04-28T09:08:44.901Z,10.10
2019-04-28T09:11:13.894Z,9.80
2019-04-28T09:13:43.963Z,10.30
2019-04-28T09:16:13.276Z,11.20
2019-04-28T09:18:42.226Z,11.90
2019-04-28T09:21:11.282Z,12.70
2019-04-28T09:23:40.473Z,13.40
2019-04-28T09:26:09.483Z,13.20
2019-04-28T09:28:38.477Z,13.20
2019-04-28T09:31:07.621Z,13.40
2019-04-28T09:33:36.568Z,13.40
2019-04-28T09:36:05.654Z,13.40
2019-04-28T09:38:35.156Z,13.50
2019-04-28T09:41:04.267Z,12.90
2019-04-28T09:43:59.808Z,13.20
2019-04-28T09:46:34.766Z,13.50
2019-04-28T09:49:03.846Z,12.90
2019-04-28T09:51:33.421Z,13.20
2019-04-28T09:54:02.438Z,13.20
2019-04-28T09:56:31.420Z,13.30
2019-04-28T09:59:00.348Z,13.60
2019-04-28T10:01:29.732Z,13.70
2019-04-28T10:03:58.817Z,14.00
2019-04-28T10:06:27.853Z,14.90
2019-04-28T10:08:56.787Z,15.40
2019-04-28T10:11:30.690Z,15.70
2019-04-28T10:13:57.116Z,15.90
2019-04-28T10:16:26.610Z,16.10
2019-04-28T10:18:55.768Z,15.80
2019-04-28T10:21:24.907Z,15.70
2019-04-28T10:23:53.989Z,15.40
2019-04-28T10:26:23.197Z,15.00
2019-04-28T10:28:52.201Z,14.60
2019-04-28T10:31:21.117Z,14.20
2019-04-28T10:33:54.202Z,13.90
2019-04-28T10:36:23.209Z,13.50
2019-04-28T10:38:54.151Z,13.20
2019-04-28T10:41:35.432Z,13.00
2019-04-28T10:44:04.469Z,12.80
2019-04-28T10:46:33.397Z,12.70
2019-04-28T10:49:02.707Z,13.20
2019-04-28T10:51:31.711Z,13.30
2019-04-28T10:54:00.715Z,13.00
2019-04-28T10:56:29.709Z,13.30
2019-04-28T10:58:59.535Z,13.70
2019-04-28T11:01:28.598Z,13.80
2019-04-28T11:03:59.918Z,13.60
2019-04-28T11:06:29.678Z,14.10
2019-04-28T11:09:13.637Z,14.00
2019-04-28T11:11:42.508Z,13.80
2019-04-28T11:14:14.153Z,14.30
2019-04-28T11:16:42.254Z,14.30
2019-04-28T11:19:11.872Z,13.70
2019-04-28T11:21:40.869Z,13.60
2019-04-28T11:24:10.162Z,13.80
2019-04-28T11:26:39.505Z,13.60
2019-04-28T11:29:09.274Z,13.80
2019-04-28T11:31:38.553Z,14.20
2019-04-28T11:34:13.266Z,14.30
2019-04-28T11:36:42.549Z,14.20
2019-04-28T11:39:15.002Z,13.60
2019-04-28T11:41:44.234Z,13.60
2019-04-28T11:44:13.642Z,14.20
2019-04-28T11:46:42.896Z,14.70
2019-04-28T11:49:11.959Z,14.90
2019-04-28T11:51:40.977Z,15.00
2019-04-28T11:54:10.053Z,14.80
2019-04-28T11:56:41.701Z,14.70
2019-04-28T11:59:09.793Z,14.80
2019-04-28T12:01:38.866Z,14.70
2019-04-28T12:04:09.677Z,14.40
2019-04-28T12:06:38.705Z,14.40
2019-04-28T12:09:32.668Z,14.10
2019-04-28T12:12:02.577Z,14.10
2019-04-28T12:14:37.029Z,13.80
2019-04-28T12:17:26.566Z,13.80
2019-04-28T12:20:03.672Z,14.00
2019-04-28T12:22:32.636Z,14.00
2019-04-28T12:25:02.184Z,14.10
2019-04-28T12:27:31.021Z,13.70
2019-04-28T12:30:00.139Z,13.90
2019-04-28T12:32:29.074Z,14.00
2019-04-28T12:34:57.990Z,14.00
2019-04-28T12:37:27.024Z,14.10
2019-04-28T12:39:55.857Z,13.50
2019-04-28T12:42:25.005Z,13.40
2019-04-28T12:44:54.370Z,13.70
2019-04-28T12:47:23.429Z,13.70
2019-04-28T12:49:57.218Z,13.70
2019-04-28T12:52:26.209Z,14.00
2019-04-28T12:54:55.541Z,14.10
2019-04-28T12:57:24.605Z,14.10
2019-04-28T12:59:59.298Z,14.00
2019-04-28T13:02:47.993Z,13.50
2019-04-28T13:05:17.785Z,13.20
2019-04-28T13:07:46.881Z,13.30
2019-04-28T13:10:15.907Z,13.20
2019-04-28T13:12:44.909Z,13.30
2019-04-28T13:15:13.989Z,13.50
2019-04-28T13:17:43.319Z,13.60
2019-04-28T13:20:12.426Z,13.60
2019-04-28T13:22:41.429Z,13.20
2019-04-28T13:25:10.633Z,13.10
2019-04-28T13:27:39.633Z,13.30
2019-04-28T13:30:08.781Z,13.10
2019-04-28T13:32:37.808Z,13.20
2019-04-28T13:35:06.983Z,13.30
2019-04-28T13:37:36.142Z,13.30
2019-04-28T13:40:11.852Z,13.20
2019-04-28T13:42:40.974Z,13.40
2019-04-28T13:45:20.018Z,13.40
2019-04-28T13:47:49.015Z,13.50
2019-04-28T13:50:23.511Z,13.60
2019-04-28T13:52:52.778Z,13.40
2019-04-28T13:55:30.718Z,13.40
2019-04-28T13:58:00.923Z,13.30
2019-04-28T14:00:39.987Z,13.00
2019-04-28T14:03:34.181Z,13.00
2019-04-28T14:06:06.292Z,13.30
2019-04-28T14:08:35.252Z,13.10
2019-04-28T14:11:04.530Z,12.90
2019-04-28T14:13:33.617Z,12.70
2019-04-28T14:16:02.685Z,12.90
2019-04-28T14:18:31.791Z,12.90
2019-04-28T14:21:01.017Z,12.60
2019-04-28T14:23:29.967Z,12.60
2019-04-28T14:25:58.943Z,12.60
2019-04-28T14:28:27.962Z,12.80
2019-04-28T14:30:56.974Z,12.70
2019-04-28T14:33:25.893Z,12.60
2019-04-28T14:35:54.845Z,12.60
2019-04-28T14:38:23.900Z,12.50
2019-04-28T14:40:52.922Z,12.60
2019-04-28T14:43:22.173Z,12.70
2019-04-28T14:45:52.103Z,12.80
2019-04-28T14:48:21.050Z,12.80
2019-04-28T14:50:50.130Z,12.80
2019-04-28T14:53:18.998Z,12.90
2019-04-28T14:55:48.008Z,12.90
2019-04-28T14:58:16.997Z,13.00
2019-04-28T15:00:50.415Z,13.10
2019-04-28T15:03:19.590Z,13.20
2019-04-28T15:06:10.719Z,13.30
2019-04-28T15:09:00.081Z,13.40
2019-04-28T15:11:39.391Z,13.50
2019-04-28T15:14:08.402Z,13.50
2019-04-28T15:16:37.413Z,13.60
2019-04-28T15:19:06.376Z,13.80
2019-04-28T15:21:35.407Z,13.90
2019-04-28T15:24:04.477Z,13.90
2019-04-28T15:26:33.686Z,14.00
2019-04-28T15:29:02.770Z,14.10
2019-04-28T15:31:31.699Z,14.10
2019-04-28T15:34:01.304Z,14.20
2019-04-28T15:36:30.297Z,14.20
2019-04-28T15:38:59.550Z,14.10
2019-04-28T15:41:28.613Z,14.20
2019-04-28T15:43:57.578Z,14.20
2019-04-28T15:46:26.624Z,14.20
2019-04-28T15:48:55.664Z,14.20
2019-04-28T15:51:24.670Z,14.10
2019-04-28T15:53:53.722Z,14.00
2019-04-28T15:56:36.835Z,14.10
2019-04-28T15:59:07.334Z,14.20
2019-04-28T16:01:36.353Z,14.20
2019-04-28T16:04:05.525Z,13.90
2019-04-28T16:06:34.757Z,13.90
2019-04-28T16:09:06.577Z,14.10
2019-04-28T16:11:35.621Z,14.10
2019-04-28T16:14:05.509Z,14.20
2019-04-28T16:16:34.542Z,14.00
2019-04-28T16:19:04.126Z,14.10
2019-04-28T16:21:33.116Z,14.00
2019-04-28T16:24:02.113Z,13.90
2019-04-28T16:26:31.524Z,14.10
2019-04-28T16:29:00.607Z,14.20
2019-04-28T16:31:29.809Z,14.20
2019-04-28T16:33:58.832Z,14.30
2019-04-28T16:36:27.876Z,14.20
2019-04-28T16:38:56.871Z,14.20
2019-04-28T16:41:30.697Z,14.20
2019-04-28T16:44:03.567Z,14.00
2019-04-28T16:46:32.559Z,13.80
2019-04-28T16:49:01.813Z,13.80
2019-04-28T16:51:30.818Z,13.80
2019-04-28T16:54:00.086Z,13.70
2019-04-28T16:56:44.400Z,13.80
2019-04-28T16:59:28.547Z,13.70
2019-04-28T17:02:19.902Z,13.70
2019-04-28T17:04:48.897Z,13.70
2019-04-28T17:07:17.829Z,13.80
2019-04-28T17:09:47.255Z,13.70
2019-04-28T17:12:16.459Z,13.70
2019-04-28T17:14:45.478Z,13.70
2019-04-28T17:17:14.598Z,13.60
2019-04-28T17:19:43.673Z,13.50
2019-04-28T17:22:12.629Z,13.30
2019-04-28T17:24:41.731Z,13.20
2019-04-28T17:27:10.989Z,13.30
2019-04-28T17:29:40.114Z,13.10
2019-04-28T17:32:09.203Z,13.20
2019-04-28T17:34:38.246Z,13.10
2019-04-28T17:37:09.165Z,13.00
2019-04-28T17:39:38.657Z,12.90
2019-04-28T17:42:09.004Z,12.70
2019-04-28T17:44:38.230Z,12.70
2019-04-28T17:47:07.280Z,12.60
2019-04-28T17:49:37.638Z,12.60
2019-04-28T17:52:09.038Z,12.50
2019-04-28T17:54:39.965Z,12.30
2019-04-28T17:57:09.483Z,12.20
2019-04-28T17:59:38.602Z,12.20
2019-04-28T18:02:26.737Z,12.10
2019-04-28T18:05:15.046Z,12.00
2019-04-28T18:07:45.354Z,11.80
2019-04-28T18:10:14.705Z,11.60
2019-04-28T18:12:44.780Z,11.20
2019-04-28T18:15:35.406Z,10.90
2019-04-28T18:18:28.126Z,10.80
2019-04-28T18:20:57.262Z,10.70
2019-04-28T18:23:26.201Z,10.50
2019-04-28T18:25:55.231Z,10.30
2019-04-28T18:28:24.193Z,10.10
2019-04-28T18:31:01.827Z,10.00
2019-04-28T18:34:01.970Z,9.70
2019-04-28T18:36:38.735Z,9.50
2019-04-28T18:39:19.237Z,9.30
2019-04-28T18:42:06.133Z,9.40
2019-04-28T18:44:35.158Z,9.30
2019-04-28T18:47:04.189Z,9.20
2019-04-28T18:49:33.275Z,9.10
2019-04-28T18:52:02.454Z,9.00
2019-04-28T18:54:31.467Z,9.00
2019-04-28T18:57:00.486Z,8.90
2019-04-28T18:59:29.462Z,8.90
2019-04-28T19:02:08.764Z,8.80
2019-04-28T19:04:37.634Z,8.80
2019-04-28T19:07:08.981Z,8.60
2019-04-28T19:09:45.322Z,8.60
2019-04-28T19:12:21.191Z,8.40
2019-04-28T19:14:59.029Z,8.20
2019-04-28T19:17:39.918Z,8.20
2019-04-28T19:20:09.098Z,8.30
2019-04-28T19:22:44.655Z,8.10
2019-04-28T19:25:13.862Z,8.10
2019-04-28T19:27:42.870Z,8.10
2019-04-28T19:30:11.941Z,7.90
2019-04-28T19:32:41.754Z,7.90
2019-04-28T19:35:11.091Z,7.80
2019-04-28T19:37:40.153Z,7.70
2019-04-28T19:40:09.413Z,7.60
2019-04-28T19:42:38.346Z,7.50
2019-04-28T19:45:11.874Z,7.50
2019-04-28T19:47:40.120Z,7.40
2019-04-28T19:50:09.235Z,7.40
2019-04-28T19:52:40.914Z,7.30
2019-04-28T19:55:17.430Z,7.30
2019-04-28T19:57:55.263Z,7.20
2019-04-28T20:00:28.163Z,7.20
2019-04-28T20:02:57.153Z,7.20
2019-04-28T20:05:26.199Z,7.10
2019-04-28T20:07:55.285Z,7.00
2019-04-28T20:10:24.281Z,7.10
2019-04-28T20:12:53.465Z,7.00
2019-04-28T20:15:22.662Z,6.90
2019-04-28T20:17:51.927Z,6.90
2019-04-28T20:20:20.873Z,6.80
2019-04-28T20:22:50.099Z,6.80
2019-04-28T20:25:19.180Z,6.70
2019-04-28T20:27:48.255Z,6.70
2019-04-28T20:30:17.570Z,6.60
2019-04-28T20:32:46.868Z,6.40
2019-04-28T20:35:19.205Z,6.40
2019-04-28T20:37:54.012Z,6.30
2019-04-28T20:40:29.985Z,6.40
2019-04-28T20:43:09.691Z,6.40
2019-04-28T20:45:38.697Z,6.30
2019-04-28T20:48:08.375Z,6.30
2019-04-28T20:50:38.771Z,6.30
2019-04-28T20:53:07.758Z,6.30
2019-04-28T20:55:37.186Z,6.30
2019-04-28T20:58:11.511Z,6.10
2019-04-28T21:00:43.279Z,6.00
2019-04-28T21:03:16.785Z,6.00
2019-04-28T21:05:47.842Z,6.10
2019-04-28T21:08:19.269Z,6.00
2019-04-28T21:10:54.489Z,5.80
2019-04-28T21:13:26.563Z,5.70
2019-04-28T21:15:55.607Z,5.70
2019-04-28T21:18:24.651Z,5.70
2019-04-28T21:20:56.957Z,5.80
2019-04-28T21:23:26.399Z,5.70
2019-04-28T21:25:55.621Z,5.60
2019-04-28T21:28:24.554Z,5.60
2019-04-28T21:30:53.844Z,5.60
2019-04-28T21:33:22.842Z,5.60
2019-04-28T21:35:51.774Z,5.50
2019-04-28T21:38:20.733Z,5.50
2019-04-28T21:40:55.888Z,5.40
2019-04-28T21:43:31.531Z,5.50
2019-04-28T21:46:22.742Z,5.40
2019-04-28T21:49:18.567Z,5.40
2019-04-28T21:51:49.705Z,5.30
2019-04-28T21:54:19.573Z,5.30
2019-04-28T21:56:49.988Z,5.30
2019-04-28T21:59:22.208Z,5.20
2019-04-28T22:01:51.796Z,5.20
2019-04-28T22:04:25.081Z,5.10
2019-04-28T22:07:02.217Z,5.10
2019-04-28T22:09:33.761Z,5.10
2019-04-28T22:12:03.438Z,5.00
2019-04-28T22:14:34.176Z,4.90
2019-04-28T22:17:07.241Z,4.90
2019-04-28T22:19:42.233Z,5.00
2019-04-28T22:22:11.064Z,5.00
2019-04-28T22:24:50.043Z,5.00
2019-04-28T22:27:41.787Z,4.90
2019-04-28T22:30:09.941Z,4.80
2019-04-28T22:32:38.941Z,4.80
2019-04-28T22:35:08.657Z,4.80
2019-04-28T22:37:48.987Z,4.80
2019-04-28T22:40:17.973Z,4.80
2019-04-28T22:42:47.128Z,4.70
2019-04-28T22:45:16.628Z,4.80
2019-04-28T22:47:46.077Z,4.70
2019-04-28T22:50:37.220Z,4.70
2019-04-28T22:53:06.337Z,4.80
2019-04-28T22:55:53.287Z,4.80
2019-04-28T22:58:38.708Z,4.70
2019-04-28T23:01:29.546Z,4.60
2019-04-28T23:04:21.938Z,4.60
2019-04-28T23:06:53.187Z,4.50
2019-04-28T23:09:23.599Z,4.50
2019-04-28T23:12:00.093Z,4.50
2019-04-28T23:14:27.959Z,4.50
2019-04-28T23:16:57.024Z,4.40
2019-04-28T23:19:28.240Z,4.50
2019-04-28T23:22:22.615Z,4.40
2019-04-28T23:24:51.618Z,4.40
2019-04-28T23:27:20.536Z,4.40
2019-04-28T23:29:49.541Z,4.40
2019-04-28T23:32:18.648Z,4.40
2019-04-28T23:34:47.653Z,4.40
2019-04-28T23:37:16.739Z,4.40
2019-04-28T23:39:45.733Z,4.40
2019-04-28T23:42:20.809Z,4.30
2019-04-28T23:44:49.838Z,4.30
2019-04-28T23:47:18.794Z,4.30
2019-04-28T23:49:47.880Z,4.30
2019-04-28T23:52:48.446Z,4.30
2019-04-28T23:55:19.474Z,4.30
2019-04-28T23:57:48.486Z,4.20
